Time;durP1;ratioP1;P1;durP2;ratioP2;P2;SDS_P1;SDS_P2;PMS_P1;PMS_P2;Temp;Humidity;BMP_temperature;BMP_pressure;BME280_temperature;BME280_humidity;BME280_pressure;Samples;Min_cycle;Max_cycle;Signal;HPM_P1;HPM_P2
2023/09/25 00:02:33;;;;;;;4.03;1.20;;;;;;;18.85;65.51;100829.16;10297388;28;96834;-76
2023/09/25 00:07:38;;;;;;;3.42;1.48;;;;;;;18.99;64.99;100831.78;10295822;28;96859;-75
2023/09/25 00:12:41;;;;;;;;;;;;;;;19.23;65.73;100832.84;10297422;28;96912;-76
2023/09/25 00:17:46;;;;;;;4.07;1.35;;;;;;;19.48;63.48;100825.91;10294332;28;97186;-76
2023/09/25 00:22:50;;;;;;;1.98;1.48;;;;;;;19.48;63.48;100818.78;10296031;28;97140;-76
2023/09/25 00:27:53;;;;;;;2.05;1.58;;;;;;;19.53;63.33;100815.81;10296356;28;98300;-75
2023/09/25 00:32:58;;;;;;;2.55;1.40;;;;;;;19.42;63.79;100823.69;10294859;28;96777;-76
2023/09/25 00:38:03;;;;;;;2.25;1.40;;;;;;;19.38;63.81;100814.13;10288242;28;97020;-76
2023/09/25 00:43:07;;;;;;;4.07;1.58;;;;;;;19.27;64.08;100806.81;10292933;28;96888;-76
2023/09/25 00:48:22;;;;;;;3.17;1.80;;;;;;;19.00;65.22;100789.97;10288567;28;96774;-76
2023/09/25 00:53:27;;;;;;;2.25;1.48;;;;;;;18.87;65.62;100794.41;10295395;28;96780;-76
2023/09/25 00:58:31;;;;;;;4.03;1.80;;;;;;;18.87;65.03;100789.91;10294820;28;97087;-76
2023/09/25 01:03:36;;;;;;;4.05;1.55;;;;;;;18.69;65.58;100784.94;10295134;28;96817;-76
2023/09/25 01:08:40;;;;;;;2.25;1.52;;;;;;;18.65;66.48;100786.94;10294272;28;96860;-76
2023/09/25 01:13:44;;;;;;;2.40;1.60;;;;;;;18.66;66.84;100788.63;10294442;28;96841;-76
2023/09/25 01:18:48;;;;;;;2.85;1.45;;;;;;;18.52;67.28;100785.16;10292443;28;98940;-76
2023/09/25 01:23:53;;;;;;;3.35;1.58;;;;;;;18.58;66.52;100788.28;10293079;28;96936;-76
2023/09/25 01:28:56;;;;;;;;;;;;;;;18.49;68.37;100796.84;10292394;28;97927;-76
2023/09/25 01:34:00;;;;;;;3.38;1.60;;;;;;;18.40;67.06;100791.25;10293520;28;96818;-76
2023/09/25 01:39:08;;;;;;;3.20;1.52;;;;;;;18.49;66.65;100790.69;10292055;28;96855;-76
2023/09/25 01:44:11;;;;;;;3.60;1.60;;;;;;;18.28;68.92;100789.34;10289228;28;96978;-76
2023/09/25 01:49:15;;;;;;;3.22;1.65;;;;;;;18.31;68.48;100782.00;10286332;28;97039;-75
2023/09/25 01:54:20;;;;;;;2.67;1.67;;;;;;;18.21;68.79;100777.34;10279975;28;96834;-76
2023/09/25 01:59:23;;;;;;;2.80;1.45;;;;;;;18.14;69.41;100774.22;10293836;28;97329;-75
2023/09/25 02:04:27;;;;;;;3.38;1.95;;;;;;;18.25;68.56;100769.06;10299579;28;96690;-76
2023/09/25 02:09:32;;;;;;;2.97;1.73;;;;;;;18.23;68.95;100772.78;10299592;28;99995;-74
2023/09/25 02:14:35;;;;;;;3.45;1.60;;;;;;;18.21;68.59;100766.69;10299224;28;96671;-74
2023/09/25 02:19:39;;;;;;;3.30;1.65;;;;;;;18.24;68.33;100766.50;10298322;28;96882;-74
2023/09/25 02:24:44;;;;;;;2.97;1.60;;;;;;;18.12;69.48;100749.50;10299509;28;97403;-74
2023/09/25 02:29:47;;;;;;;;;;;;;;;17.93;71.80;100747.09;10339854;22;97026;-75
2023/09/25 02:34:51;;;;;;;1.88;1.42;;;;;;;17.81;71.08;100741.69;10340175;28;96866;-75
2023/09/25 02:39:56;;;;;;;4.47;1.77;;;;;;;17.78;70.90;100742.72;10339311;28;96788;-75
2023/09/25 02:44:59;;;;;;;5.40;1.90;;;;;;;17.69;71.12;100742.44;10340403;28;97192;-75
2023/09/25 02:50:02;;;;;;;2.50;1.70;;;;;;;17.64;71.41;100745.38;10337966;28;98672;-75
2023/09/25 02:55:09;;;;;;;3.58;1.33;;;;;;;17.63;71.53;100743.66;10340351;28;96793;-74
2023/09/25 03:00:14;;;;;;;3.55;1.70;;;;;;;17.62;70.82;100733.13;10351314;28;96895;-74
2023/09/25 03:05:19;;;;;;;3.13;1.60;;;;;;;17.55;71.46;100731.78;10352066;28;96758;-74
2023/09/25 03:10:23;;;;;;;2.90;1.57;;;;;;;17.65;70.49;100719.63;10338211;28;97459;-75
2023/09/25 03:15:27;;;;;;;2.20;1.48;;;;;;;17.46;71.40;100724.31;10338288;28;96700;-75
2023/09/25 03:20:30;;;;;;;2.47;1.45;;;;;;;17.42;72.73;100731.63;10348859;28;97101;-75
2023/09/25 03:25:36;;;;;;;4.00;1.88;;;;;;;17.44;72.00;100726.19;10339549;28;96753;-75
2023/09/25 03:30:39;;;;;;;3.20;1.83;;;;;;;17.37;72.33;100728.38;10337686;28;96705;-75
2023/09/25 03:35:43;;;;;;;2.17;1.55;;;;;;;17.40;71.88;100725.53;10361722;28;97611;-75
2023/09/25 03:40:48;;;;;;;2.33;1.50;;;;;;;17.34;72.35;100720.59;10346090;28;97141;-75
2023/09/25 03:45:51;;;;;;;2.55;1.48;;;;;;;17.20;73.69;100727.66;10337523;28;96986;-75
2023/09/25 03:50:54;;;;;;;1.85;1.52;;;;;;;17.10;74.98;100723.84;10345920;28;97087;-75
2023/09/25 03:55:59;;;;;;;3.00;1.65;;;;;;;17.04;74.46;100727.72;10345343;28;96729;-75
2023/09/25 04:01:02;;;;;;;;;;;;;;;17.04;74.50;100739.22;10337401;28;96801;-76
2023/09/25 04:06:06;;;;;;;2.63;1.50;;;;;;;17.19;73.15;100734.78;10337166;28;97333;-75
2023/09/25 04:11:11;;;;;;;2.55;1.55;;;;;;;17.27;72.59;100735.19;10338445;28;96853;-75
2023/09/25 04:16:15;;;;;;;2.22;1.58;;;;;;;17.39;71.85;100747.78;10337054;28;97093;-75
2023/09/25 04:21:18;;;;;;;1.95;1.33;;;;;;;17.14;72.70;100738.69;10336105;28;96952;-75
2023/09/25 04:26:23;;;;;;;3.17;1.77;;;;;;;17.06;73.25;100744.44;10337933;28;96898;-75
2023/09/25 04:31:28;;;;;;;2.45;1.60;;;;;;;17.23;72.40;100746.09;10335591;28;96872;-76
2023/09/25 04:36:34;;;;;;;2.92;1.70;;;;;;;17.13;73.25;100753.78;10336123;28;97563;-76
2023/09/25 04:41:42;;;;;;;1.67;1.20;;;;;;;17.04;73.85;100754.31;10344158;28;96579;-75
2023/09/25 04:46:45;;;;;;;3.88;1.88;;;;;;;17.08;73.37;100755.84;10337324;28;97049;-74
2023/09/25 04:51:48;;;;;;;3.05;1.63;;;;;;;17.11;72.51;100763.63;10335201;28;96896;-74
2023/09/25 04:56:53;;;;;;;2.23;1.40;;;;;;;17.01;72.97;100770.44;10335239;28;96849;-75
2023/09/25 05:01:57;;;;;;;3.05;1.83;;;;;;;16.94;74.31;100774.41;10369272;28;97511;-75
2023/09/25 05:07:00;;;;;;;3.05;1.70;;;;;;;16.97;72.99;100783.06;10336804;28;97370;-75
2023/09/25 05:12:05;;;;;;;3.97;1.58;;;;;;;16.96;72.80;100781.31;10334865;28;99817;-76
2023/09/25 05:17:09;;;;;;;5.40;1.90;;;;;;;16.92;73.21;100776.28;10351230;28;96794;-75
2023/09/25 05:22:12;;;;;;;2.97;1.80;;;;;;;17.01;72.26;100783.72;10295162;28;96870;-75
2023/09/25 05:27:17;;;;;;;3.22;1.60;;;;;;;16.94;72.79;100787.69;10334929;28;96787;-75
2023/09/25 05:32:20;;;;;;;2.63;1.75;;;;;;;16.81;73.28;100787.53;10336193;28;96836;-75
2023/09/25 05:37:23;;;;;;;3.53;1.80;;;;;;;16.73;73.78;100797.75;10341971;28;96690;-75
2023/09/25 05:42:29;;;;;;;2.75;1.52;;;;;;;16.60;74.72;100798.50;10341302;28;97552;-75
2023/09/25 05:47:32;;;;;;;2.45;1.70;;;;;;;16.61;74.43;100793.13;10341131;28;96908;-75
2023/09/25 05:52:36;;;;;;;3.45;1.80;;;;;;;16.48;75.62;100805.34;10367885;28;96761;-75
2023/09/25 05:57:41;;;;;;;7.28;3.40;;;;;;;16.49;75.05;100808.88;10341626;28;96822;-75
2023/09/25 06:02:45;;;;;;;10.73;5.10;;;;;;;16.43;75.51;100815.38;10340748;28;96513;-75
2023/09/25 06:07:49;;;;;;;5.63;3.10;;;;;;;16.42;75.48;100813.66;10350539;28;97672;-75
2023/09/25 06:12:53;;;;;;;5.45;2.53;;;;;;;16.34;75.99;100810.50;10339648;28;96795;-75
2023/09/25 06:17:58;;;;;;;19.50;10.05;;;;;;;16.38;75.78;100803.22;10340651;28;96778;-75
2023/09/25 06:23:02;;;;;;;24.55;11.02;;;;;;;16.29;75.63;100796.63;10339995;28;98694;-75
2023/09/25 06:28:08;;;;;;;5.07;2.83;;;;;;;16.46;74.74;100801.91;10339095;28;103375;-75
2023/09/25 06:33:12;;;;;;;5.45;2.58;;;;;;;16.66;73.79;100804.34;10340328;28;96793;-75
2023/09/25 06:38:16;;;;;;;3.78;2.05;;;;;;;16.68;73.39;100801.59;10339216;28;96700;-75
2023/09/25 06:43:21;;;;;;;4.60;2.50;;;;;;;16.71;73.17;100804.94;10356873;28;96944;-75
2023/09/25 06:48:24;;;;;;;5.40;2.20;;;;;;;16.87;73.14;100807.59;10339735;28;96724;-76
2023/09/25 06:53:29;;;;;;;3.83;2.00;;;;;;;16.96;72.24;100815.06;10339113;28;98938;-75
2023/09/25 06:58:34;;;;;;;2.87;1.40;;;;;;;17.01;72.49;100813.84;10339508;28;97074;-76
2023/09/25 07:03:39;;;;;;;5.05;1.52;;;;;;;16.95;72.60;100814.19;10338478;28;96828;-75
2023/09/25 07:08:42;;;;;;;3.08;1.77;;;;;;;17.09;71.79;100805.41;10337874;28;96644;-75
2023/09/25 07:13:48;;;;;;;2.35;1.75;;;;;;;17.80;70.66;100818.03;10337240;28;96997;-75
2023/09/25 07:18:53;;;;;;;3.70;1.75;;;;;;;19.34;67.17;100808.13;10349766;28;96888;-75
2023/09/25 07:23:56;;;;;;;;;;;;;;;20.51;63.12;100811.59;10348219;28;97123;-75
2023/09/25 07:29:01;;;;;;;2.30;1.60;;;;;;;21.33;63.39;100804.56;10337367;28;96870;-75
2023/09/25 07:34:05;;;;;;;2.95;1.35;;;;;;;22.55;61.30;100809.22;10335634;28;96904;-75
2023/09/25 12:56:21;;;;;;;1.88;1.13;;;;;;;37.48;25.48;100589.50;10432917;27;99545;-76
2023/09/25 13:01:24;;;;;;;1.95;1.00;;;;;;;38.90;23.93;100584.34;10428530;27;98911;-75
2023/09/25 13:06:27;;;;;;;1.52;0.90;;;;;;;39.05;23.80;100573.69;10408417;27;96910;-75
2023/09/25 13:11:34;;;;;;;1.48;1.00;;;;;;;39.18;23.29;100565.25;10409864;27;96899;-77
2023/09/25 13:16:37;;;;;;;1.83;0.98;;;;;;;39.47;23.05;100556.88;10412410;27;97005;-74
2023/09/25 13:21:40;;;;;;;1.90;1.10;;;;;;;39.65;23.58;100559.50;10405045;27;96872;-74
2023/09/25 13:26:45;;;;;;;1.73;1.00;;;;;;;39.40;24.37;100536.88;10402138;27;96861;-75
2023/09/25 13:31:48;;;;;;;1.48;0.90;;;;;;;40.01;24.07;100530.78;10381752;28;97494;-75
2023/09/25 13:36:51;;;;;;;1.70;1.35;;;;;;;39.84;23.90;100525.19;10414646;28;96769;-74
2023/09/25 13:41:56;;;;;;;1.20;0.88;;;;;;;38.87;24.81;100524.28;10409131;27;99030;-74
2023/09/25 13:46:59;;;;;;;1.98;1.23;;;;;;;38.31;24.70;100508.19;10400458;27;96817;-74
2023/09/25 13:52:03;;;;;;;1.75;1.10;;;;;;;37.89;25.66;100496.28;10403580;27;96862;-74
2023/09/25 13:57:09;;;;;;;2.22;1.13;;;;;;;37.83;25.60;100499.97;10402833;27;96725;-75
2023/09/25 14:02:16;;;;;;;1.90;1.23;;;;;;;37.54;25.63;100497.94;10410569;27;97052;-73
2023/09/25 14:07:20;;;;;;;1.45;0.75;;;;;;;37.38;25.64;100485.66;10378182;28;96793;-75
2023/09/25 14:12:24;;;;;;;1.98;0.98;;;;;;;36.56;26.39;100482.41;10373534;28;96845;-75
2023/09/25 14:17:27;;;;;;;1.58;1.30;;;;;;;36.74;26.85;100477.00;10376750;28;98890;-74
2023/09/25 14:22:31;;;;;;;4.05;1.15;;;;;;;36.03;26.88;100478.31;10356862;28;97814;-73
2023/09/25 14:27:36;;;;;;;1.70;1.20;;;;;;;36.33;26.51;100472.00;10359614;28;97073;-74
2023/09/25 14:32:39;;;;;;;2.67;1.45;;;;;;;35.39;27.95;100470.13;10372689;28;96793;-74
2023/09/25 14:37:43;;;;;;;2.25;1.30;;;;;;;35.27;28.50;100464.47;10357531;28;96959;-73
2023/09/25 14:42:48;;;;;;;2.55;1.50;;;;;;;34.47;29.35;100472.09;10370993;28;96700;-73
2023/09/25 14:47:52;;;;;;;3.15;1.70;;;;;;;34.14;29.86;100474.75;10384676;28;96632;-73
2023/09/25 14:52:55;;;;;;;2.00;1.30;;;;;;;33.97;30.42;100472.63;10391276;28;96790;-73
2023/09/25 14:58:00;;;;;;;2.03;1.48;;;;;;;33.11;31.58;100474.03;10345497;22;97274;-73
2023/09/25 15:03:03;;;;;;;2.63;1.40;;;;;;;32.89;31.72;100482.47;10296780;28;97285;-73
2023/09/25 15:08:07;;;;;;;2.60;1.73;;;;;;;32.47;32.20;100471.59;10298989;28;96817;-74
2023/09/25 15:13:11;;;;;;;2.97;1.75;;;;;;;31.92;33.19;100481.31;10302365;28;96743;-73
2023/09/25 15:18:15;;;;;;;1.85;1.58;;;;;;;31.71;34.10;100472.19;10297601;28;96768;-73
2023/09/25 15:23:18;;;;;;;3.20;1.85;;;;;;;31.77;33.81;100466.00;10300300;28;97197;-73
2023/09/25 15:28:23;;;;;;;;;;;;;;;31.40;35.61;100466.16;10298591;28;96988;-73
2023/09/25 15:33:26;;;;;;;4.28;2.08;;;;;;;31.17;35.49;100472.50;10298134;28;98737;-73
2023/09/25 15:38:29;;;;;;;3.35;2.00;;;;;;;31.07;35.59;100463.78;10288929;28;96895;-72
2023/09/25 15:43:33;;;;;;;;;;;;;;;30.96;35.45;100464.25;10277896;28;100311;-74
2023/09/25 15:48:37;;;;;;;2.88;1.90;;;;;;;30.82;35.48;100467.78;10272768;28;97210;-73
2023/09/25 15:53:40;;;;;;;2.58;2.10;;;;;;;30.59;35.48;100480.56;10264202;28;97502;-75
2023/09/25 15:58:44;;;;;;;;;;;;;;;30.44;35.75;100481.53;10284253;28;97531;-75
2023/09/25 16:03:48;;;;;;;3.85;1.90;;;;;;;30.32;35.99;100480.28;10293652;28;97272;-75
2023/09/25 16:08:51;;;;;;;3.65;1.95;;;;;;;30.15;35.51;100484.97;10297175;28;96795;-75
2023/09/25 16:13:56;;;;;;;2.78;1.77;;;;;;;29.88;35.39;100480.84;10297607;28;97379;-75
2023/09/25 16:18:59;;;;;;;2.58;1.38;;;;;;;29.83;35.51;100491.41;10297408;28;96738;-76
2023/09/25 16:24:02;;;;;;;;;;;;;;;29.49;34.06;100488.16;10297484;28;97733;-75
2023/09/25 16:29:07;;;;;;;2.50;1.50;;;;;;;29.38;35.05;100488.53;10295271;28;96802;-76
2023/09/25 16:34:10;;;;;;;2.72;1.50;;;;;;;29.23;35.65;100495.72;10317411;28;96776;-75
2023/09/25 16:39:14;;;;;;;3.03;1.50;;;;;;;29.07;35.29;100506.59;10333827;28;97007;-75
2023/09/25 16:44:19;;;;;;;3.13;1.33;;;;;;;28.96;35.67;100510.53;10329450;28;98665;-76
2023/09/25 16:49:22;;;;;;;2.97;1.67;;;;;;;28.89;36.22;100509.50;10296632;28;96690;-76
2023/09/25 16:54:26;;;;;;;4.70;1.48;;;;;;;28.76;36.32;100516.41;10291178;28;97228;-75
2023/09/25 16:59:31;;;;;;;2.47;1.30;;;;;;;28.61;36.17;100518.97;10282632;28;99662;-75
2023/09/25 17:04:35;;;;;;;2.17;1.30;;;;;;;28.48;36.29;100537.56;10278644;28;99974;-74
2023/09/25 17:09:38;;;;;;;2.38;1.42;;;;;;;28.36;36.61;100530.78;10281491;28;97757;-78
2023/09/25 17:14:43;;;;;;;2.42;1.30;;;;;;;28.28;37.06;100530.75;10285053;28;97509;-79
2023/09/25 17:19:47;;;;;;;2.70;1.45;;;;;;;28.16;37.59;100528.53;10293854;28;96887;-78
2023/09/25 17:24:51;;;;;;;2.53;1.23;;;;;;;27.98;38.51;100540.34;10295916;28;97124;-78
2023/09/25 17:29:57;;;;;;;2.17;1.35;;;;;;;27.75;38.96;100539.22;10329419;28;96786;-79
2023/09/25 17:35:01;;;;;;;2.10;1.20;;;;;;;27.62;39.41;100554.19;10336454;28;96638;-79
2023/09/25 17:40:05;;;;;;;2.63;1.40;;;;;;;27.48;39.48;100560.19;10339009;28;96624;-79
2023/09/25 17:45:11;;;;;;;2.38;1.50;;;;;;;27.38;39.66;100557.63;10322821;28;96793;-79
2023/09/25 17:50:14;;;;;;;2.17;1.42;;;;;;;27.24;40.48;100566.31;10301760;28;97645;-78
2023/09/25 17:55:18;;;;;;;4.30;1.57;;;;;;;27.09;40.94;100572.47;10301953;28;97163;-78
2023/09/25 18:00:28;;;;;;;3.17;1.38;;;;;;;26.98;40.92;100587.03;10301789;28;97968;-78
2023/09/25 18:05:31;;;;;;;2.58;1.50;;;;;;;26.84;41.82;100591.16;10301270;28;97498;-78
2023/09/25 18:10:34;;;;;;;2.50;1.40;;;;;;;26.67;42.73;100593.88;10301514;28;96538;-78
2023/09/25 18:15:40;;;;;;;3.67;1.70;;;;;;;26.37;43.75;100602.38;10300470;28;96892;-78
2023/09/25 18:20:47;;;;;;;3.88;1.83;;;;;;;26.19;44.13;100605.00;10333675;28;96883;-78
2023/09/25 18:25:53;;;;;;;3.05;1.63;;;;;;;25.93;44.86;100601.31;10342022;28;97059;-78
2023/09/25 18:31:02;;;;;;;2.90;1.60;;;;;;;25.70;45.77;100605.38;10341743;28;96883;-78
2023/09/25 18:36:07;;;;;;;2.60;1.80;;;;;;;25.41;46.25;100607.31;10321577;28;97497;-78
2023/09/25 18:41:14;;;;;;;4.07;1.70;;;;;;;25.23;47.11;100614.44;10300146;28;96695;-78
2023/09/25 18:46:21;;;;;;;3.15;1.67;;;;;;;25.16;47.34;100614.16;10300403;28;96846;-77
2023/09/25 18:51:26;;;;;;;2.38;1.20;;;;;;;24.97;48.00;100608.78;10300629;28;97474;-78
2023/09/25 18:56:30;;;;;;;2.63;1.40;;;;;;;24.78;48.21;100609.66;10299936;28;96938;-77
2023/09/25 19:01:36;;;;;;;3.00;1.40;;;;;;;24.58;48.96;100605.22;10299231;28;97629;-78
2023/09/25 19:06:40;;;;;;;3.22;1.30;;;;;;;24.34;49.22;100609.34;10299570;28;97211;-78
2023/09/25 19:11:44;;;;;;;;;;;;;;;24.21;50.10;100617.63;10300452;28;96894;-78
2023/09/25 19:16:50;;;;;;;3.13;1.60;;;;;;;24.05;49.69;100616.47;10299474;28;96712;-78
2023/09/25 19:21:54;;;;;;;3.22;1.60;;;;;;;24.00;49.93;100622.25;10298387;28;97219;-78
2023/09/25 19:26:58;;;;;;;;;;;;;;;23.79;51.59;100626.00;10300286;28;96816;-77
2023/09/25 19:32:04;;;;;;;2.83;1.30;;;;;;;23.55;50.88;100628.97;10299382;28;97424;-77
2023/09/25 19:37:09;;;;;;;2.63;1.33;;;;;;;23.56;51.13;100639.59;10298382;28;96898;-77
2023/09/25 19:42:13;;;;;;;;;;;;;;;23.32;52.63;100644.38;10299196;28;96758;-77
2023/09/25 19:47:21;;;;;;;2.27;1.23;;;;;;;23.31;51.18;100650.75;10298103;28;97142;-78
2023/09/25 19:52:26;;;;;;;5.10;1.83;;;;;;;23.18;51.83;100663.50;10297745;28;96817;-77
2023/09/25 19:57:29;;;;;;;2.17;1.35;;;;;;;23.00;52.30;100673.13;10297443;28;96704;-78
2023/09/25 20:02:36;;;;;;;3.80;1.73;;;;;;;22.87;52.75;100674.28;10327896;28;96739;-78
2023/09/25 20:07:40;;;;;;;2.95;1.40;;;;;;;22.66;53.83;100682.25;10338900;28;96769;-77
2023/09/25 20:12:44;;;;;;;;;;;;;;;22.48;55.15;100684.63;10339141;28;96523;-77
2023/09/25 20:17:52;;;;;;;1.77;1.47;;;;;;;22.54;53.47;100684.09;10330658;28;96845;-77
2023/09/25 20:22:55;;;;;;;2.10;1.60;;;;;;;22.23;54.52;100684.06;10307631;28;97255;-78
2023/09/25 20:27:59;;;;;;;3.42;1.65;;;;;;;22.13;54.91;100700.03;10296567;28;96858;-78
2023/09/25 20:33:04;;;;;;;2.40;1.50;;;;;;;21.94;55.38;100704.25;10297402;28;97036;-77
2023/09/25 20:38:08;;;;;;;2.03;1.35;;;;;;;21.98;55.12;100701.25;10296378;28;96695;-77
2023/09/25 20:43:11;;;;;;;3.55;1.65;;;;;;;21.82;55.47;100714.13;10296526;28;96785;-78
2023/09/25 20:48:16;;;;;;;3.85;1.90;;;;;;;21.87;55.50;100716.44;10296706;28;96726;-77
2023/09/25 20:53:19;;;;;;;2.95;1.63;;;;;;;21.46;56.58;100709.81;10288508;28;96805;-77
2023/09/25 20:58:24;;;;;;;2.95;1.48;;;;;;;21.48;56.64;100720.41;10295324;28;97211;-77
2023/09/25 21:03:29;;;;;;;4.63;1.60;;;;;;;21.90;55.76;100722.41;10296352;28;97188;-77
2023/09/25 21:08:33;;;;;;;1.65;1.20;;;;;;;21.73;56.25;100722.03;10296555;28;96708;-77
2023/09/25 21:13:36;;;;;;;1.53;1.17;;;;;;;21.85;55.91;100716.56;10296915;28;97130;-77
2023/09/25 21:18:41;;;;;;;2.63;1.60;;;;;;;21.75;56.13;100717.38;10302922;28;96662;-77
2023/09/25 21:23:45;;;;;;;1.90;1.17;;;;;;;21.89;55.96;100723.38;10301337;28;96787;-77
2023/09/25 21:28:48;;;;;;;2.37;1.50;;;;;;;21.89;56.12;100727.88;10260958;28;97476;-78
2023/09/25 21:33:54;;;;;;;2.30;1.50;;;;;;;21.37;57.33;100731.06;10260078;28;96684;-77
2023/09/25 21:38:58;;;;;;;1.80;1.30;;;;;;;21.17;57.92;100721.88;10259739;28;96681;-77
2023/09/25 21:44:01;;;;;;;3.07;1.93;;;;;;;20.86;58.45;100725.13;10286876;28;96776;-77
2023/09/25 21:49:06;;;;;;;2.67;1.50;;;;;;;20.83;58.63;100727.16;10299934;28;96677;-77
2023/09/25 21:54:11;;;;;;;2.22;1.45;;;;;;;20.81;58.65;100737.16;10300158;28;97087;-78
2023/09/25 21:59:14;;;;;;;2.35;1.55;;;;;;;20.82;58.79;100731.69;10299632;28;96642;-78
2023/09/25 22:04:20;;;;;;;3.20;1.27;;;;;;;20.75;58.73;100724.22;10299843;28;96763;-78
2023/09/25 22:09:27;;;;;;;3.25;1.60;;;;;;;20.52;59.40;100719.69;10299786;28;96873;-77
2023/09/25 22:14:32;;;;;;;2.05;1.30;;;;;;;20.48;59.33;100718.22;10299628;28;96681;-77
2023/09/25 22:19:38;;;;;;;2.50;1.50;;;;;;;20.55;59.09;100723.00;10300903;28;97232;-77
2023/09/25 22:24:44;;;;;;;2.67;1.30;;;;;;;20.67;58.87;100723.94;10298583;28;97095;-77
2023/09/25 22:29:49;;;;;;;2.83;1.40;;;;;;;20.42;59.49;100721.34;10298931;28;96663;-78
2023/09/25 22:35:12;;;;;;;2.05;1.40;;;;;;;20.34;59.82;100729.94;10291933;28;97130;-77
2023/09/25 22:40:16;;;;;;;2.88;1.60;;;;;;;20.29;59.93;100724.00;10298072;28;97597;-77
2023/09/25 22:45:31;;;;;;;3.28;1.33;;;;;;;19.96;60.31;100724.59;10298296;28;96903;-77
2023/09/25 22:50:53;;;;;;;2.22;1.60;;;;;;;20.01;60.54;100730.47;10295870;28;96958;-78
2023/09/25 22:56:00;;;;;;;3.33;1.55;;;;;;;20.06;60.44;100725.69;10297833;28;97330;-77
2023/09/25 23:01:20;;;;;;;;;;;;;;;20.07;61.41;100745.22;10296824;28;96923;-78
2023/09/25 23:06:26;;;;;;;2.03;1.48;;;;;;;19.93;60.51;100745.31;10303121;28;97969;-78
2023/09/25 23:11:47;;;;;;;2.17;1.38;;;;;;;19.84;60.83;100744.16;10339686;28;96892;-77
2023/09/25 23:16:50;;;;;;;4.82;1.90;;;;;;;19.75;61.65;100736.78;10324005;28;97292;-78
2023/09/25 23:21:56;;;;;;;5.00;1.70;;;;;;;19.67;62.12;100740.94;10295648;28;96720;-78
2023/09/25 23:26:59;;;;;;;3.40;1.92;;;;;;;19.65;62.41;100746.38;10291183;28;96964;-78
2023/09/25 23:32:03;;;;;;;3.97;2.00;;;;;;;19.55;62.50;100747.13;10296531;28;97131;-78
2023/09/25 23:37:08;;;;;;;3.20;1.88;;;;;;;19.92;61.59;100748.97;10295626;28;96604;-78
2023/09/25 23:42:28;;;;;;;4.55;1.85;;;;;;;20.04;61.29;100756.97;10296371;28;97034;-77
2023/09/25 23:47:32;;;;;;;3.25;1.95;;;;;;;19.88;61.84;100756.34;10296347;28;97105;-77
2023/09/25 23:52:37;;;;;;;3.75;2.30;;;;;;;20.20;61.29;100751.41;10296157;28;97239;-77
2023/09/25 23:57:42;;;;;;;3.67;1.70;;;;;;;19.75;62.62;100752.78;10296111;28;96919;-78
